sensor_id;sensor_type;location;lat;lon;timestamp;pressure;altitude;pressure_sealevel;temperature;humidity
42761;BME280;31672;47.638;19.026;2023-04-08T00:01:27;100341.47;;;2.68;100.00
42761;BME280;31672;47.638;19.026;2023-04-08T00:06:31;100338.00;;;2.67;100.00
42761;BME280;31672;47.638;19.026;2023-04-08T00:11:33;100342.41;;;2.67;100.00
42761;BME280;31672;47.638;19.026;2023-04-08T00:16:36;100336.09;;;2.69;100.00
42761;BME280;31672;47.638;19.026;2023-04-08T00:21:39;100331.69;;;2.70;100.00
42761;BME280;31672;47.638;19.026;2023-04-08T00:26:42;100326.22;;;2.73;100.00
42761;BME280;31672;47.638;19.026;2023-04-08T00:31:45;100345.53;;;2.72;100.00
42761;BME280;31672;47.638;19.026;2023-04-08T00:36:49;100336.72;;;2.73;100.00
42761;BME280;31672;47.638;19.026;2023-04-08T00:41:52;100350.44;;;2.77;100.00
42761;BME280;31672;47.638;19.026;2023-04-08T00:46:55;100346.13;;;2.76;100.00
42761;BME280;31672;47.638;19.026;2023-04-08T00:51:58;100346.13;;;2.76;100.00
42761;BME280;31672;47.638;19.026;2023-04-08T00:57:03;100351.81;;;2.69;100.00
42761;BME280;31672;47.638;19.026;2023-04-08T01:07:37;100353.97;;;2.64;100.00
42761;BME280;31672;47.638;19.026;2023-04-08T01:12:58;100350.63;;;2.62;100.00
42761;BME280;31672;47.638;19.026;2023-04-08T01:18:07;100348.81;;;2.63;100.00
42761;BME280;31672;47.638;19.026;2023-04-08T01:24:07;100340.97;;;2.63;100.00
42761;BME280;31672;47.638;19.026;2023-04-08T01:29:13;100343.94;;;2.58;100.00
42761;BME280;31672;47.638;19.026;2023-04-08T01:34:19;100344.03;;;2.57;100.00
42761;BME280;31672;47.638;19.026;2023-04-08T01:39:24;100346.16;;;2.52;100.00
42761;BME280;31672;47.638;19.026;2023-04-08T01:44:29;100344.28;;;2.54;100.00
42761;BME280;31672;47.638;19.026;2023-04-08T01:49:33;100350.47;;;2.53;100.00
42761;BME280;31672;47.638;19.026;2023-04-08T01:54:36;100349.00;;;2.49;100.00
42761;BME280;31672;47.638;19.026;2023-04-08T01:59:40;100347.56;;;2.45;100.00
42761;BME280;31672;47.638;19.026;2023-04-08T02:04:43;100341.47;;;2.44;100.00
42761;BME280;31672;47.638;19.026;2023-04-08T02:09:47;100346.84;;;2.42;100.00
42761;BME280;31672;47.638;19.026;2023-04-08T02:14:50;100338.59;;;2.36;100.00
42761;BME280;31672;47.638;19.026;2023-04-08T02:25:23;100338.59;;;2.36;100.00
42761;BME280;31672;47.638;19.026;2023-04-08T02:30:27;100340.59;;;2.32;100.00
42761;BME280;31672;47.638;19.026;2023-04-08T02:35:32;100338.72;;;2.34;100.00
42761;BME280;31672;47.638;19.026;2023-04-08T02:40:36;100339.31;;;2.38;100.00
42761;BME280;31672;47.638;19.026;2023-04-08T02:45:43;100338.97;;;2.42;100.00
42761;BME280;31672;47.638;19.026;2023-04-08T02:50:46;100341.59;;;2.42;100.00
42761;BME280;31672;47.638;19.026;2023-04-08T02:55:49;100339.81;;;2.43;100.00
42761;BME280;31672;47.638;19.026;2023-04-08T03:00:52;100343.25;;;2.44;100.00
42761;BME280;31672;47.638;19.026;2023-04-08T03:05:56;100348.50;;;2.44;100.00
42761;BME280;31672;47.638;19.026;2023-04-08T03:11:00;100349.22;;;2.46;100.00
42761;BME280;31672;47.638;19.026;2023-04-08T03:16:04;100348.00;;;2.38;100.00
42761;BME280;31672;47.638;19.026;2023-04-08T03:21:07;100357.34;;;2.42;100.00
42761;BME280;31672;47.638;19.026;2023-04-08T03:26:11;100355.53;;;2.43;100.00
42761;BME280;31672;47.638;19.026;2023-04-08T03:31:14;100359.25;;;2.40;100.00
42761;BME280;31672;47.638;19.026;2023-04-08T03:36:18;100359.00;;;2.44;100.00
42761;BME280;31672;47.638;19.026;2023-04-08T03:41:21;100361.63;;;2.44;100.00
42761;BME280;31672;47.638;19.026;2023-04-08T03:46:24;100363.09;;;2.48;100.00
42761;BME280;31672;47.638;19.026;2023-04-08T03:51:27;100359.50;;;2.49;100.00
42761;BME280;31672;47.638;19.026;2023-04-08T03:56:30;100365.59;;;2.49;100.00
42761;BME280;31672;47.638;19.026;2023-04-08T04:01:33;100369.75;;;2.52;100.00
42761;BME280;31672;47.638;19.026;2023-04-08T04:06:36;100379.41;;;2.51;100.00
42761;BME280;31672;47.638;19.026;2023-04-08T04:11:39;100379.34;;;2.53;100.00
42761;BME280;31672;47.638;19.026;2023-04-08T04:16:42;100380.16;;;2.53;100.00
42761;BME280;31672;47.638;19.026;2023-04-08T04:21:45;100376.19;;;2.48;100.00
42761;BME280;31672;47.638;19.026;2023-04-08T04:26:48;100392.31;;;2.54;100.00
42761;BME280;31672;47.638;19.026;2023-04-08T04:31:52;100391.50;;;2.54;100.00
42761;BME280;31672;47.638;19.026;2023-04-08T04:36:54;100389.81;;;2.53;100.00
42761;BME280;31672;47.638;19.026;2023-04-08T04:41:58;100391.38;;;2.55;100.00
42761;BME280;31672;47.638;19.026;2023-04-08T04:47:01;100395.78;;;2.55;100.00
42761;BME280;31672;47.638;19.026;2023-04-08T04:52:04;100396.41;;;2.58;100.00
42761;BME280;31672;47.638;19.026;2023-04-08T04:57:07;100392.09;;;2.57;100.00
42761;BME280;31672;47.638;19.026;2023-04-08T05:02:10;100398.09;;;2.59;100.00
42761;BME280;31672;47.638;19.026;2023-04-08T05:07:13;100407.50;;;2.62;100.00
42761;BME280;31672;47.638;19.026;2023-04-08T05:12:17;100407.28;;;2.65;100.00
42761;BME280;31672;47.638;19.026;2023-04-08T05:17:22;100405.22;;;2.57;100.00
42761;BME280;31672;47.638;19.026;2023-04-08T05:22:25;100415.81;;;2.56;100.00
42761;BME280;31672;47.638;19.026;2023-04-08T05:27:28;100418.84;;;2.62;100.00
42761;BME280;31672;47.638;19.026;2023-04-08T05:32:31;100429.13;;;2.65;100.00
42761;BME280;31672;47.638;19.026;2023-04-08T05:37:34;100419.22;;;2.69;100.00
42761;BME280;31672;47.638;19.026;2023-04-08T05:42:37;100433.09;;;2.71;100.00
42761;BME280;31672;47.638;19.026;2023-04-08T05:47:40;100436.22;;;2.76;100.00
42761;BME280;31672;47.638;19.026;2023-04-08T05:52:44;100431.06;;;2.75;100.00
42761;BME280;31672;47.638;19.026;2023-04-08T05:57:47;100433.59;;;2.76;100.00
42761;BME280;31672;47.638;19.026;2023-04-08T06:02:50;100432.41;;;2.80;100.00
42761;BME280;31672;47.638;19.026;2023-04-08T06:07:53;100433.22;;;2.81;100.00
42761;BME280;31672;47.638;19.026;2023-04-08T06:12:56;100428.81;;;2.81;100.00
42761;BME280;31672;47.638;19.026;2023-04-08T06:17:59;100439.31;;;2.81;100.00
42761;BME280;31672;47.638;19.026;2023-04-08T06:23:02;100445.81;;;2.88;100.00
42761;BME280;31672;47.638;19.026;2023-04-08T06:28:06;100447.47;;;2.89;100.00
42761;BME280;31672;47.638;19.026;2023-04-08T06:33:09;100450.09;;;2.89;100.00
42761;BME280;31672;47.638;19.026;2023-04-08T06:38:26;100456.06;;;2.91;100.00
42761;BME280;31672;47.638;19.026;2023-04-08T06:43:31;100465.97;;;2.88;100.00
42761;BME280;31672;47.638;19.026;2023-04-08T06:48:34;100473.09;;;2.86;100.00
42761;BME280;31672;47.638;19.026;2023-04-08T06:53:39;100464.91;;;2.90;100.00
42761;BME280;31672;47.638;19.026;2023-04-08T06:58:42;100473.28;;;2.95;100.00
42761;BME280;31672;47.638;19.026;2023-04-08T07:03:45;100470.78;;;2.94;100.00
42761;BME280;31672;47.638;19.026;2023-04-08T07:08:48;100482.84;;;2.97;100.00
42761;BME280;31672;47.638;19.026;2023-04-08T07:13:52;100478.41;;;2.97;100.00
42761;BME280;31672;47.638;19.026;2023-04-08T07:18:55;100483.34;;;3.02;100.00
42761;BME280;31672;47.638;19.026;2023-04-08T07:23:58;100492.06;;;3.02;100.00
42761;BME280;31672;47.638;19.026;2023-04-08T07:29:02;100497.19;;;3.04;100.00
42761;BME280;31672;47.638;19.026;2023-04-08T07:34:05;100502.44;;;3.04;100.00
42761;BME280;31672;47.638;19.026;2023-04-08T07:39:08;100502.44;;;3.04;100.00
42761;BME280;31672;47.638;19.026;2023-04-08T07:44:11;100503.16;;;3.06;100.00
42761;BME280;31672;47.638;19.026;2023-04-08T07:49:14;100518.56;;;3.10;100.00
42761;BME280;31672;47.638;19.026;2023-04-08T07:54:17;100527.53;;;3.08;100.00
42761;BME280;31672;47.638;19.026;2023-04-08T07:59:20;100533.81;;;3.05;100.00
42761;BME280;31672;47.638;19.026;2023-04-08T08:04:23;100542.31;;;3.09;100.00
42761;BME280;31672;47.638;19.026;2023-04-08T08:09:28;100538.41;;;3.14;100.00
42761;BME280;31672;47.638;19.026;2023-04-08T08:14:33;100536.41;;;3.18;100.00
42761;BME280;31672;47.638;19.026;2023-04-08T08:19:36;100535.72;;;3.27;100.00
42761;BME280;31672;47.638;19.026;2023-04-08T08:24:40;100535.91;;;3.37;100.00
42761;BME280;31672;47.638;19.026;2023-04-08T08:29:43;100530.66;;;3.37;100.00
42761;BME280;31672;47.638;19.026;2023-04-08T08:34:45;100535.53;;;3.41;100.00
42761;BME280;31672;47.638;19.026;2023-04-08T08:39:48;100538.44;;;3.49;100.00
42761;BME280;31672;47.638;19.026;2023-04-08T08:44:52;100541.56;;;3.55;100.00
42761;BME280;31672;47.638;19.026;2023-04-08T08:49:56;100554.34;;;3.59;100.00
42761;BME280;31672;47.638;19.026;2023-04-08T08:54:59;100553.41;;;3.60;100.00
42761;BME280;31672;47.638;19.026;2023-04-08T09:00:03;100548.00;;;3.51;100.00
42761;BME280;31672;47.638;19.026;2023-04-08T09:05:07;100568.41;;;3.47;100.00
42761;BME280;31672;47.638;19.026;2023-04-08T09:10:10;100576.41;;;3.45;100.00
42761;BME280;31672;47.638;19.026;2023-04-08T09:15:13;100577.03;;;3.49;100.00
42761;BME280;31672;47.638;19.026;2023-04-08T09:20:16;100583.72;;;3.53;100.00
42761;BME280;31672;47.638;19.026;2023-04-08T09:25:28;100579.34;;;3.65;100.00
42761;BME280;31672;47.638;19.026;2023-04-08T09:30:32;100584.09;;;3.60;100.00
42761;BME280;31672;47.638;19.026;2023-04-08T09:35:35;100588.06;;;3.65;100.00
42761;BME280;31672;47.638;19.026;2023-04-08T09:40:39;100587.72;;;3.70;100.00
42761;BME280;31672;47.638;19.026;2023-04-08T09:45:44;100593.31;;;3.65;100.00
42761;BME280;31672;47.638;19.026;2023-04-08T09:50:50;100597.53;;;3.68;100.00
42761;BME280;31672;47.638;19.026;2023-04-08T09:55:56;100600.19;;;3.79;100.00
42761;BME280;31672;47.638;19.026;2023-04-08T10:01:00;100595.66;;;3.81;100.00
42761;BME280;31672;47.638;19.026;2023-04-08T10:06:05;100597.09;;;3.85;100.00
42761;BME280;31672;47.638;19.026;2023-04-08T10:11:10;100602.53;;;4.06;100.00
42761;BME280;31672;47.638;19.026;2023-04-08T10:16:21;100605.78;;;4.21;100.00
42761;BME280;31672;47.638;19.026;2023-04-08T10:21:39;100599.31;;;4.25;100.00
42761;BME280;31672;47.638;19.026;2023-04-08T10:26:45;100604.59;;;4.25;100.00
42761;BME280;31672;47.638;19.026;2023-04-08T10:31:50;100598.63;;;4.34;100.00
42761;BME280;31672;47.638;19.026;2023-04-08T10:36:55;100591.47;;;4.47;100.00
42761;BME280;31672;47.638;19.026;2023-04-08T10:42:01;100593.97;;;4.60;100.00
42761;BME280;31672;47.638;19.026;2023-04-08T10:47:04;100586.19;;;4.70;100.00
42761;BME280;31672;47.638;19.026;2023-04-08T10:52:08;100590.28;;;4.74;99.49
42761;BME280;31672;47.638;19.026;2023-04-08T10:57:11;100595.53;;;4.63;97.62
42761;BME280;31672;47.638;19.026;2023-04-08T11:02:14;100596.72;;;4.59;97.33
42761;BME280;31672;47.638;19.026;2023-04-08T11:07:19;100591.22;;;4.73;98.55
42761;BME280;31672;47.638;19.026;2023-04-08T11:12:22;100596.25;;;4.87;98.97
42761;BME280;31672;47.638;19.026;2023-04-08T11:17:26;100584.72;;;4.99;98.95
42761;BME280;31672;47.638;19.026;2023-04-08T11:22:29;100591.66;;;5.00;97.92
42761;BME280;31672;47.638;19.026;2023-04-08T11:27:35;100585.69;;;4.98;97.40
42761;BME280;31672;47.638;19.026;2023-04-08T11:32:39;100590.34;;;4.95;96.31
42761;BME280;31672;47.638;19.026;2023-04-08T11:37:43;100593.00;;;4.95;96.24
42761;BME280;31672;47.638;19.026;2023-04-08T11:42:47;100595.97;;;4.90;95.85
42761;BME280;31672;47.638;19.026;2023-04-08T11:47:50;100602.09;;;4.79;95.09
42761;BME280;31672;47.638;19.026;2023-04-08T11:52:53;100598.41;;;4.71;94.42
42761;BME280;31672;47.638;19.026;2023-04-08T11:58:02;100592.66;;;4.77;95.21
42761;BME280;31672;47.638;19.026;2023-04-08T12:03:06;100592.63;;;5.10;96.66
42761;BME280;31672;47.638;19.026;2023-04-08T12:08:10;100595.41;;;5.41;97.41
42761;BME280;31672;47.638;19.026;2023-04-08T12:13:13;100581.72;;;5.47;92.64
42761;BME280;31672;47.638;19.026;2023-04-08T12:18:16;100592.47;;;5.55;93.02
42761;BME280;31672;47.638;19.026;2023-04-08T12:23:19;100589.63;;;5.47;91.95
42761;BME280;31672;47.638;19.026;2023-04-08T12:28:22;100581.28;;;5.31;91.31
42761;BME280;31672;47.638;19.026;2023-04-08T12:33:25;100590.66;;;5.24;92.77
42761;BME280;31672;47.638;19.026;2023-04-08T12:38:28;100592.09;;;5.28;93.54
42761;BME280;31672;47.638;19.026;2023-04-08T12:43:31;100585.22;;;5.36;93.42
42761;BME280;31672;47.638;19.026;2023-04-08T12:48:34;100582.81;;;5.33;91.27
42761;BME280;31672;47.638;19.026;2023-04-08T12:53:38;100580.31;;;5.32;91.88
42761;BME280;31672;47.638;19.026;2023-04-08T12:58:41;100586.34;;;5.34;92.09
42761;BME280;31672;47.638;19.026;2023-04-08T13:03:44;100584.56;;;5.23;89.55
42761;BME280;31672;47.638;19.026;2023-04-08T13:08:49;100580.97;;;5.13;88.88
42761;BME280;31672;47.638;19.026;2023-04-08T13:13:53;100581.69;;;5.15;90.01
42761;BME280;31672;47.638;19.026;2023-04-08T13:18:56;100583.97;;;5.20;89.41
42761;BME280;31672;47.638;19.026;2023-04-08T13:23:58;100584.63;;;5.33;90.29
42761;BME280;31672;47.638;19.026;2023-04-08T13:29:01;100580.50;;;5.51;89.23
42761;BME280;31672;47.638;19.026;2023-04-08T13:34:06;100570.16;;;5.59;88.88
42761;BME280;31672;47.638;19.026;2023-04-08T13:39:09;100568.63;;;5.78;88.66
42761;BME280;31672;47.638;19.026;2023-04-08T13:44:12;100575.34;;;5.82;86.80
42761;BME280;31672;47.638;19.026;2023-04-08T13:49:15;100566.69;;;5.91;88.73
42761;BME280;31672;47.638;19.026;2023-04-08T13:54:18;100569.06;;;5.94;88.71
42761;BME280;31672;47.638;19.026;2023-04-08T13:59:21;100571.44;;;5.97;87.34
42761;BME280;31672;47.638;19.026;2023-04-08T14:04:24;100567.03;;;5.86;83.96
42761;BME280;31672;47.638;19.026;2023-04-08T14:09:27;100568.34;;;5.92;85.27
42761;BME280;31672;47.638;19.026;2023-04-08T14:14:30;100567.69;;;6.00;86.68
42761;BME280;31672;47.638;19.026;2023-04-08T14:19:33;100563.69;;;6.05;86.11
42761;BME280;31672;47.638;19.026;2023-04-08T14:24:36;100570.47;;;6.19;87.53
42761;BME280;31672;47.638;19.026;2023-04-08T14:29:39;100568.91;;;6.16;85.85
42761;BME280;31672;47.638;19.026;2023-04-08T14:34:43;100571.81;;;6.13;85.61
42761;BME280;31672;47.638;19.026;2023-04-08T14:39:46;100579.09;;;6.00;83.83
42761;BME280;31672;47.638;19.026;2023-04-08T14:44:49;100573.38;;;5.95;82.52
42761;BME280;31672;47.638;19.026;2023-04-08T14:49:52;100577.34;;;5.89;81.69
42761;BME280;31672;47.638;19.026;2023-04-08T14:54:55;100566.75;;;5.69;79.29
42761;BME280;31672;47.638;19.026;2023-04-08T14:59:58;100568.38;;;5.60;79.57
42761;BME280;31672;47.638;19.026;2023-04-08T15:05:01;100575.91;;;5.64;81.98
42761;BME280;31672;47.638;19.026;2023-04-08T15:10:05;100573.78;;;5.58;82.37
42761;BME280;31672;47.638;19.026;2023-04-08T15:15:08;100574.53;;;5.49;81.87
42761;BME280;31672;47.638;19.026;2023-04-08T15:20:12;100579.13;;;5.36;83.16
42761;BME280;31672;47.638;19.026;2023-04-08T15:25:15;100580.69;;;5.27;84.71
42761;BME280;31672;47.638;19.026;2023-04-08T15:30:18;100580.63;;;5.18;86.64
42761;BME280;31672;47.638;19.026;2023-04-08T15:35:26;100581.00;;;5.02;87.83
42761;BME280;31672;47.638;19.026;2023-04-08T15:40:32;100591.19;;;4.95;88.86
42761;BME280;31672;47.638;19.026;2023-04-08T15:45:41;100594.81;;;4.83;89.19
42761;BME280;31672;47.638;19.026;2023-04-08T15:50:44;100598.53;;;4.69;89.82
42761;BME280;31672;47.638;19.026;2023-04-08T15:55:47;100600.44;;;4.56;90.73
42761;BME280;31672;47.638;19.026;2023-04-08T16:00:51;100619.69;;;4.45;91.60
42761;BME280;31672;47.638;19.026;2023-04-08T16:05:57;100610.59;;;4.38;92.35
42761;BME280;31672;47.638;19.026;2023-04-08T16:11:02;100615.88;;;4.38;93.03
42761;BME280;31672;47.638;19.026;2023-04-08T16:16:06;100620.25;;;4.38;93.53
42761;BME280;31672;47.638;19.026;2023-04-08T16:21:10;100615.88;;;4.38;94.42
42761;BME280;31672;47.638;19.026;2023-04-08T16:26:13;100622.81;;;4.39;94.87
42761;BME280;31672;47.638;19.026;2023-04-08T16:31:17;100631.66;;;4.38;95.22
42761;BME280;31672;47.638;19.026;2023-04-08T16:36:21;100629.59;;;4.30;95.56
42761;BME280;31672;47.638;19.026;2023-04-08T16:41:24;100634.25;;;4.27;95.54
42761;BME280;31672;47.638;19.026;2023-04-08T16:46:27;100644.88;;;4.25;95.85
42761;BME280;31672;47.638;19.026;2023-04-08T16:51:30;100640.22;;;4.18;95.48
42761;BME280;31672;47.638;19.026;2023-04-08T16:56:33;100644.75;;;4.16;95.38
42761;BME280;31672;47.638;19.026;2023-04-08T17:01:36;100651.06;;;4.13;95.22
42761;BME280;31672;47.638;19.026;2023-04-08T17:06:40;100642.81;;;4.07;94.92
42761;BME280;31672;47.638;19.026;2023-04-08T17:11:44;100647.34;;;4.05;95.08
42761;BME280;31672;47.638;19.026;2023-04-08T17:16:47;100655.59;;;4.00;95.21
42761;BME280;31672;47.638;19.026;2023-04-08T17:21:51;100655.59;;;4.00;95.62
42761;BME280;31672;47.638;19.026;2023-04-08T17:26:53;100668.84;;;3.98;95.79
42761;BME280;31672;47.638;19.026;2023-04-08T17:31:59;100669.06;;;3.95;96.05
42761;BME280;31672;47.638;19.026;2023-04-08T17:37:03;100669.31;;;3.92;96.20
42761;BME280;31672;47.638;19.026;2023-04-08T17:42:07;100679.44;;;3.86;96.19
42761;BME280;31672;47.638;19.026;2023-04-08T17:47:10;100680.59;;;3.82;96.83
42761;BME280;31672;47.638;19.026;2023-04-08T17:52:13;100683.69;;;3.75;97.23
42761;BME280;31672;47.638;19.026;2023-04-08T17:57:16;100682.97;;;3.73;97.48
42761;BME280;31672;47.638;19.026;2023-04-08T18:02:19;100687.28;;;3.74;97.94
42761;BME280;31672;47.638;19.026;2023-04-08T18:07:22;100691.19;;;3.69;97.71
42761;BME280;31672;47.638;19.026;2023-04-08T18:12:27;100693.19;;;3.65;98.00
42761;BME280;31672;47.638;19.026;2023-04-08T18:17:30;100700.47;;;3.62;98.35
42761;BME280;31672;47.638;19.026;2023-04-08T18:22:33;100706.78;;;3.59;98.78
42761;BME280;31672;47.638;19.026;2023-04-08T18:27:36;100709.00;;;3.53;98.96
42761;BME280;31672;47.638;19.026;2023-04-08T18:32:39;100711.13;;;3.47;99.23
42761;BME280;31672;47.638;19.026;2023-04-08T18:37:42;100713.25;;;3.42;99.27
42761;BME280;31672;47.638;19.026;2023-04-08T18:42:45;100711.06;;;3.36;99.36
42761;BME280;31672;47.638;19.026;2023-04-08T18:47:48;100719.59;;;3.27;99.49
42761;BME280;31672;47.638;19.026;2023-04-08T18:52:52;100720.97;;;3.20;99.52
42761;BME280;31672;47.638;19.026;2023-04-08T18:57:55;100721.50;;;3.12;99.73
42761;BME280;31672;47.638;19.026;2023-04-08T19:02:58;100732.34;;;3.08;99.71
42761;BME280;31672;47.638;19.026;2023-04-08T19:08:01;100737.47;;;3.09;100.00
42761;BME280;31672;47.638;19.026;2023-04-08T19:13:04;100726.03;;;2.98;100.00
42761;BME280;31672;47.638;19.026;2023-04-08T19:18:07;100727.72;;;2.99;100.00
42761;BME280;31672;47.638;19.026;2023-04-08T19:23:12;100732.00;;;3.00;100.00
42761;BME280;31672;47.638;19.026;2023-04-08T19:28:15;100737.25;;;3.00;100.00
42761;BME280;31672;47.638;19.026;2023-04-08T19:33:18;100736.53;;;2.98;100.00
42761;BME280;31672;47.638;19.026;2023-04-08T19:38:24;100734.56;;;3.01;100.00
42761;BME280;31672;47.638;19.026;2023-04-08T19:43:27;100744.94;;;3.03;100.00
42761;BME280;31672;47.638;19.026;2023-04-08T19:48:33;100750.91;;;3.05;100.00
42761;BME280;31672;47.638;19.026;2023-04-08T19:53:36;100753.47;;;3.06;100.00
42761;BME280;31672;47.638;19.026;2023-04-08T19:58:39;100750.91;;;3.05;100.00
42761;BME280;31672;47.638;19.026;2023-04-08T20:03:43;100741.78;;;2.98;100.00
42761;BME280;31672;47.638;19.026;2023-04-08T20:08:52;100749.25;;;3.04;100.00
42761;BME280;31672;47.638;19.026;2023-04-08T20:13:56;100743.78;;;3.07;100.00
42761;BME280;31672;47.638;19.026;2023-04-08T20:18:59;100746.31;;;3.08;100.00
42761;BME280;31672;47.638;19.026;2023-04-08T20:24:02;100746.00;;;3.13;100.00
42761;BME280;31672;47.638;19.026;2023-04-08T20:29:05;100742.19;;;3.17;100.00
42761;BME280;31672;47.638;19.026;2023-04-08T20:34:08;100754.16;;;3.21;100.00
42761;BME280;31672;47.638;19.026;2023-04-08T20:39:12;100746.28;;;3.21;100.00
42761;BME280;31672;47.638;19.026;2023-04-08T20:44:16;100748.78;;;3.22;100.00
42761;BME280;31672;47.638;19.026;2023-04-08T20:49:19;100754.88;;;3.23;100.00
42761;BME280;31672;47.638;19.026;2023-04-08T20:54:22;100752.69;;;3.17;100.00
42761;BME280;31672;47.638;19.026;2023-04-08T20:59:26;100748.81;;;3.10;100.00
42761;BME280;31672;47.638;19.026;2023-04-08T21:04:29;100757.66;;;3.09;100.00
42761;BME280;31672;47.638;19.026;2023-04-08T21:09:33;100759.53;;;3.07;100.00
42761;BME280;31672;47.638;19.026;2023-04-08T21:14:36;100765.72;;;3.06;100.00
42761;BME280;31672;47.638;19.026;2023-04-08T21:19:41;100772.88;;;3.04;100.00
42761;BME280;31672;47.638;19.026;2023-04-08T21:24:44;100770.25;;;3.04;100.00
42761;BME280;31672;47.638;19.026;2023-04-08T21:29:51;100766.47;;;3.08;100.00
42761;BME280;31672;47.638;19.026;2023-04-08T21:34:54;100773.59;;;3.06;100.00
42761;BME280;31672;47.638;19.026;2023-04-08T21:39:57;100766.66;;;3.05;100.00
42761;BME280;31672;47.638;19.026;2023-04-08T21:45:00;100768.69;;;3.01;100.00
42761;BME280;31672;47.638;19.026;2023-04-08T21:50:04;100768.75;;;3.00;100.00
42761;BME280;31672;47.638;19.026;2023-04-08T21:55:08;100757.75;;;2.94;100.00
42761;BME280;31672;47.638;19.026;2023-04-08T22:00:12;100772.75;;;2.92;100.00
42761;BME280;31672;47.638;19.026;2023-04-08T22:05:15;100755.66;;;2.87;100.00
42761;BME280;31672;47.638;19.026;2023-04-08T22:10:18;100768.16;;;2.83;100.00
42761;BME280;31672;47.638;19.026;2023-04-08T22:15:21;100763.22;;;2.79;100.00
42761;BME280;31672;47.638;19.026;2023-04-08T22:20:24;100756.41;;;2.76;100.00
42761;BME280;31672;47.638;19.026;2023-04-08T22:25:27;100767.50;;;2.80;100.00
42761;BME280;31672;47.638;19.026;2023-04-08T22:30:30;100765.84;;;2.79;100.00
42761;BME280;31672;47.638;19.026;2023-04-08T22:35:34;100763.22;;;2.79;100.00
42761;BME280;31672;47.638;19.026;2023-04-08T22:40:38;100758.59;;;2.82;100.00
42761;BME280;31672;47.638;19.026;2023-04-08T22:45:41;100756.81;;;2.83;100.00
42761;BME280;31672;47.638;19.026;2023-04-08T22:50:44;100765.00;;;2.91;100.00
42761;BME280;31672;47.638;19.026;2023-04-08T22:55:47;100767.63;;;2.91;100.00
42761;BME280;31672;47.638;19.026;2023-04-08T23:00:50;100761.13;;;2.97;100.00
42761;BME280;31672;47.638;19.026;2023-04-08T23:05:53;100769.63;;;3.00;100.00
42761;BME280;31672;47.638;19.026;2023-04-08T23:10:57;100766.78;;;3.03;100.00
42761;BME280;31672;47.638;19.026;2023-04-08T23:16:00;100759.03;;;3.02;100.00
42761;BME280;31672;47.638;19.026;2023-04-08T23:21:04;100771.09;;;3.04;100.00
42761;BME280;31672;47.638;19.026;2023-04-08T23:26:19;100766.66;;;3.05;100.00
42761;BME280;31672;47.638;19.026;2023-04-08T23:31:23;100768.56;;;3.03;100.00
42761;BME280;31672;47.638;19.026;2023-04-08T23:36:26;100758.25;;;3.00;100.00
42761;BME280;31672;47.638;19.026;2023-04-08T23:41:30;100757.75;;;2.94;100.00
42761;BME280;31672;47.638;19.026;2023-04-08T23:46:32;100755.75;;;2.98;100.00
42761;BME280;31672;47.638;19.026;2023-04-08T23:51:36;100754.72;;;3.01;100.00
42761;BME280;31672;47.638;19.026;2023-04-08T23:56:40;100757.22;;;3.02;100.00
